Time;durP1;ratioP1;P1;durP2;ratioP2;P2;SDS_P1;SDS_P2;PMS_P1;PMS_P2;Temp;Humidity;BMP_temperature;BMP_pressure;BME280_temperature;BME280_humidity;BME280_pressure;Samples;Min_cycle;Max_cycle;Signal;HPM_P1;HPM_P2
2021/09/04 00:01:06;;;;;;;;;30.25;24.75;;;;;-147.91;100.00;58652.34;5051369;28;45628;-82
2021/09/04 00:03:32;;;;;;;;;28.75;25.75;;;;;-147.91;100.00;58652.34;5065508;27;46451;-81
2021/09/04 00:05:57;;;;;;;;;27.25;25.00;;;;;-147.91;100.00;58652.34;5067437;27;45573;-82
2021/09/04 00:08:23;;;;;;;;;29.50;25.50;;;;;-147.91;100.00;58652.34;5069970;28;46308;-82
2021/09/04 00:10:48;;;;;;;;;24.50;24.50;;;;;-147.91;100.00;58652.34;5064919;28;45513;-82
2021/09/04 00:13:14;;;;;;;;;27.75;26.75;;;;;-147.91;100.00;58652.34;5069442;28;45542;-81
2021/09/04 00:15:39;;;;;;;;;28.50;26.00;;;;;-147.91;100.00;58652.34;5065932;28;45374;-81
2021/09/04 00:18:05;;;;;;;;;29.50;24.00;;;;;-147.91;100.00;58652.34;5063060;27;51327;-80
2021/09/04 00:20:30;;;;;;;;;30.25;27.00;;;;;-147.91;100.00;58652.34;5047450;28;45663;-80
2021/09/04 00:22:56;;;;;;;;;34.00;28.50;;;;;-147.91;100.00;58652.34;5064051;28;46673;-80
2021/09/04 00:25:22;;;;;;;;;35.50;29.75;;;;;-147.91;100.00;58652.34;5061641;28;45855;-80
2021/09/04 00:27:47;;;;;;;;;29.50;27.50;;;;;-147.91;100.00;58652.34;5064729;27;45514;-80
2021/09/04 00:30:13;;;;;;;;;32.50;26.50;;;;;-147.91;100.00;58652.34;5062398;27;45893;-80
2021/09/04 00:32:38;;;;;;;;;30.75;27.00;;;;;-147.91;100.00;58652.34;5071018;28;46425;-80
2021/09/04 00:35:04;;;;;;;;;30.00;26.00;;;;;-147.91;100.00;58652.34;5065242;27;45643;-80
2021/09/04 00:37:30;;;;;;;;;35.25;31.75;;;;;-147.91;100.00;58652.34;5065381;28;45556;-80
2021/09/04 00:39:55;;;;;;;;;34.00;30.00;;;;;-147.91;100.00;58652.34;5069234;28;45612;-80
2021/09/04 00:42:21;;;;;;;;;31.50;30.00;;;;;-147.91;100.00;58652.34;5039633;28;47957;-79
2021/09/04 00:44:47;;;;;;;;;36.50;31.00;;;;;-147.91;100.00;58652.34;5070696;28;45656;-80
2021/09/04 00:47:13;;;;;;;;;31.00;28.25;;;;;-147.91;100.00;58652.34;5064611;27;45762;-79
2021/09/04 00:49:40;;;;;;;;;32.75;30.00;;;;;-147.91;100.00;58652.34;5065227;27;45562;-80
2021/09/04 00:52:06;;;;;;;;;30.50;30.00;;;;;-147.91;100.00;58652.34;5069425;27;46924;-79
2021/09/04 00:54:33;;;;;;;;;31.75;29.25;;;;;-147.91;100.00;58652.34;5064751;28;45586;-79
2021/09/04 00:57:01;;;;;;;;;33.00;29.75;;;;;-147.91;100.00;58652.34;5057381;28;46211;-80
2021/09/04 00:59:26;;;;;;;;;35.25;30.50;;;;;-147.91;100.00;58652.34;5060944;27;45928;-80
2021/09/04 01:01:52;;;;;;;;;32.75;30.50;;;;;-147.91;100.00;58652.34;5059470;28;45544;-80
2021/09/04 01:04:17;;;;;;;;;36.25;29.25;;;;;-147.91;100.00;58652.34;5043175;28;46441;-79
2021/09/04 01:06:43;;;;;;;;;38.00;32.25;;;;;-147.91;100.00;58652.34;5056424;27;46303;-80
2021/09/04 01:09:08;;;;;;;;;37.25;31.75;;;;;-147.91;100.00;58652.34;5058500;28;45585;-79
2021/09/04 01:11:34;;;;;;;;;38.00;33.00;;;;;-147.91;100.00;58652.34;5061856;28;46268;-80
2021/09/04 01:14:00;;;;;;;;;41.00;32.00;;;;;-147.91;100.00;58652.34;5059071;27;48615;-80
2021/09/04 01:16:39;;;;;;;;;38.00;34.25;;;;;-147.91;100.00;58652.34;5061673;27;45650;-79
2021/09/04 01:19:05;;;;;;;;;40.50;34.75;;;;;-147.91;100.00;58652.34;5062938;28;45648;-80
2021/09/04 01:21:32;;;;;;;;;44.00;35.00;;;;;-147.91;100.00;58652.34;5058107;27;47763;-80
2021/09/04 01:24:03;;;;;;;;;36.75;32.75;;;;;-147.91;100.00;58652.34;5061161;28;46456;-80
2021/09/04 01:26:28;;;;;;;;;39.25;33.25;;;;;-147.91;100.00;58652.34;5066197;27;53671;-80
2021/09/04 01:28:57;;;;;;;;;41.75;32.75;;;;;-147.91;100.00;58652.34;5064132;28;45577;-79
2021/09/04 01:31:23;;;;;;;;;42.25;34.75;;;;;-147.91;100.00;58652.34;5068574;28;46244;-80
2021/09/04 01:33:49;;;;;;;;;44.75;35.25;;;;;-147.91;100.00;58652.34;5065768;27;45555;-80
2021/09/04 01:36:26;;;;;;;;;44.25;35.50;;;;;-147.91;100.00;58652.34;5065346;28;51870;-79
2021/09/04 01:38:51;;;;;;;;;42.25;33.75;;;;;-147.91;100.00;58652.34;5031939;28;45592;-79
2021/09/04 01:41:17;;;;;;;;;37.50;33.25;;;;;-147.91;100.00;58652.34;5056026;28;45557;-80
2021/09/04 01:43:42;;;;;;;;;35.25;32.25;;;;;-147.91;100.00;58652.34;5059792;28;45658;-80
2021/09/04 01:46:09;;;;;;;;;37.50;31.75;;;;;-147.91;100.00;58652.34;5094358;22;45359;-95
2021/09/04 01:48:35;;;;;;;;;41.75;33.25;;;;;-147.91;100.00;58652.34;5101362;22;45762;-80
2021/09/04 01:51:00;;;;;;;;;38.75;32.75;;;;;-147.91;100.00;58652.34;5052092;27;46193;-80
2021/09/04 01:53:26;;;;;;;;;35.75;30.00;;;;;-147.91;100.00;58652.34;5056269;28;46105;-80
2021/09/04 01:55:51;;;;;;;;;32.25;29.00;;;;;-147.91;100.00;58652.34;5049608;28;45386;-80
2021/09/04 01:58:17;;;;;;;;;38.75;29.50;;;;;-147.91;100.00;58652.34;5051773;28;45551;-80
2021/09/04 02:00:42;;;;;;;;;36.00;32.00;;;;;-147.91;100.00;58652.34;5050676;28;46327;-80
2021/09/04 02:03:07;;;;;;;;;43.00;32.75;;;;;-147.91;100.00;58652.34;5052457;28;45656;-80
2021/09/04 02:05:33;;;;;;;;;32.75;28.50;;;;;-147.91;100.00;58652.34;5056915;28;45603;-80
2021/09/04 02:07:59;;;;;;;;;32.25;29.50;;;;;-147.91;100.00;58652.34;5051388;28;45841;-80
2021/09/04 02:10:24;;;;;;;;;35.50;30.50;;;;;-147.91;100.00;58652.34;5034037;28;48493;-80
2021/09/04 02:12:50;;;;;;;;;32.00;30.00;;;;;-147.91;100.00;58652.34;5049529;27;45552;-79
2021/09/04 02:15:17;;;;;;;;;35.75;30.25;;;;;-147.91;100.00;58652.34;5051977;28;45568;-80
2021/09/04 02:17:43;;;;;;;;;31.75;27.25;;;;;-147.91;100.00;58652.34;5054744;28;45623;-82
2021/09/04 02:20:09;;;;;;;;;31.25;28.75;;;;;-147.91;100.00;58652.34;5049115;28;46683;-82
2021/09/04 02:22:34;;;;;;;;;32.50;28.25;;;;;-147.91;100.00;58652.34;5035913;27;46088;-81
2021/09/04 02:25:02;;;;;;;;;30.75;29.50;;;;;-147.91;100.00;58652.34;5037766;28;45661;-82
2021/09/04 02:27:27;;;;;;;;;38.25;29.25;;;;;-147.91;100.00;58652.34;5052649;28;45531;-82
2021/09/04 02:29:52;;;;;;;;;33.00;28.50;;;;;-147.91;100.00;58652.34;5054412;28;46397;-81
2021/09/04 02:32:18;;;;;;;;;27.50;27.50;;;;;-147.91;100.00;58652.34;5049206;28;60171;-81
2021/09/04 02:34:43;;;;;;;;;31.75;28.75;;;;;-147.91;100.00;58652.34;5050226;28;46425;-81
2021/09/04 02:37:09;;;;;;;;;28.00;26.25;;;;;-147.91;100.00;58652.34;5059644;28;45422;-81
2021/09/04 02:39:34;;;;;;;;;30.75;29.25;;;;;-147.91;100.00;58652.34;5053056;28;45691;-81
2021/09/04 02:41:59;;;;;;;;;27.50;25.25;;;;;-147.91;100.00;58652.34;5048817;28;45512;-81
2021/09/04 02:44:25;;;;;;;;;36.25;30.25;;;;;-147.91;100.00;58652.34;5051908;28;45510;-82
2021/09/04 02:46:50;;;;;;;;;29.75;27.25;;;;;-147.91;100.00;58652.34;5042903;28;45556;-81
2021/09/04 02:49:16;;;;;;;;;30.00;24.75;;;;;-147.91;100.00;58652.34;5051607;28;46469;-82
2021/09/04 02:51:41;;;;;;;;;31.50;28.50;;;;;-147.91;100.00;58652.34;5028511;28;46044;-80
2021/09/04 02:54:07;;;;;;;;;28.75;26.50;;;;;-147.91;100.00;58652.34;5054073;28;45952;-81
2021/09/04 02:56:32;;;;;;;;;32.75;26.50;;;;;-147.91;100.00;58652.34;5051610;27;45516;-81
2021/09/04 02:58:58;;;;;;;;;30.75;28.00;;;;;-147.91;100.00;58652.34;5026718;28;48037;-82
2021/09/04 03:01:23;;;;;;;;;30.50;26.00;;;;;-147.91;100.00;58652.34;5052792;28;55706;-82
2021/09/04 03:03:49;;;;;;;;;28.75;24.75;;;;;-147.91;100.00;58652.34;5049299;27;45620;-82
2021/09/04 03:06:14;;;;;;;;;30.75;27.50;;;;;-147.91;100.00;58652.34;5040789;28;45575;-81
2021/09/04 03:08:39;;;;;;;;;30.25;27.75;;;;;-147.91;100.00;58652.34;5052156;28;48015;-81
2021/09/04 03:11:05;;;;;;;;;27.75;25.50;;;;;-147.91;100.00;58652.34;5047167;28;45603;-81
2021/09/04 03:13:31;;;;;;;;;28.00;26.50;;;;;-147.91;100.00;58652.34;5055541;28;45634;-81
2021/09/04 03:15:56;;;;;;;;;31.00;24.75;;;;;-147.91;100.00;58652.34;5050788;28;45627;-81
2021/09/04 03:18:22;;;;;;;;;29.25;24.75;;;;;-147.91;100.00;58652.34;5044891;28;45829;-81
2021/09/04 03:20:47;;;;;;;;;31.25;27.50;;;;;-147.91;100.00;58652.34;5050802;28;45244;-81
2021/09/04 03:23:12;;;;;;;;;28.25;25.25;;;;;-147.91;100.00;58652.34;5051070;28;45632;-81
2021/09/04 03:25:38;;;;;;;;;29.00;27.75;;;;;-147.91;100.00;58652.34;5057150;28;45452;-81
2021/09/04 03:28:04;;;;;;;;;29.00;25.50;;;;;-147.91;100.00;58652.34;5059634;27;45635;-83
2021/09/04 03:30:29;;;;;;;;;31.25;26.25;;;;;-147.91;100.00;58652.34;5050768;28;45602;-82
2021/09/04 03:32:54;;;;;;;;;35.25;28.50;;;;;-147.91;100.00;58652.34;5054087;28;46072;-81
2021/09/04 03:35:20;;;;;;;;;35.50;30.00;;;;;-147.91;100.00;58652.34;5050247;28;45731;-82
2021/09/04 03:37:46;;;;;;;;;29.00;27.75;;;;;-147.91;100.00;58652.34;5034312;28;47000;-83
2021/09/04 03:40:12;;;;;;;;;32.75;29.00;;;;;-147.91;100.00;58652.34;5054382;28;45635;-81
2021/09/04 03:42:38;;;;;;;;;39.75;29.50;;;;;-147.91;100.00;58652.34;5055138;27;45654;-81
2021/09/04 03:45:03;;;;;;;;;34.25;29.25;;;;;-147.91;100.00;58652.34;5056136;28;45554;-81
2021/09/04 03:47:30;;;;;;;;;37.75;30.00;;;;;-147.91;100.00;58652.34;5037169;28;48056;-81
2021/09/04 03:49:55;;;;;;;;;38.25;31.50;;;;;-147.91;100.00;58652.34;5053637;28;45789;-82
2021/09/04 03:52:20;;;;;;;;;35.50;30.00;;;;;-147.91;100.00;58652.34;5053647;28;46251;-81
2021/09/04 03:54:46;;;;;;;;;34.25;31.25;;;;;-147.91;100.00;58652.34;5051935;27;56131;-81
2021/09/04 03:57:12;;;;;;;;;28.75;27.00;;;;;-147.91;100.00;58652.34;5051058;28;47301;-81
2021/09/04 03:59:37;;;;;;;;;32.00;29.25;;;;;-147.91;100.00;58652.34;5052640;28;46175;-81
2021/09/04 04:02:03;;;;;;;;;38.00;32.00;;;;;-147.91;100.00;58652.34;5056778;28;45537;-81
2021/09/04 04:04:28;;;;;;;;;35.25;31.50;;;;;-147.91;100.00;58652.34;5055062;28;45586;-82
2021/09/04 04:06:53;;;;;;;;;39.50;30.00;;;;;-147.91;100.00;58652.34;5049243;27;45680;-81
2021/09/04 04:09:19;;;;;;;;;38.00;32.00;;;;;-147.91;100.00;58652.34;5051486;28;46167;-82
2021/09/04 04:11:44;;;;;;;;;30.50;26.50;;;;;-147.91;100.00;58652.34;5043310;28;45457;-81
2021/09/04 04:14:10;;;;;;;;;35.00;26.50;;;;;-147.91;100.00;58652.34;5053827;28;45852;-81
2021/09/04 04:16:35;;;;;;;;;31.25;27.75;;;;;-147.91;100.00;58652.34;5048067;28;46506;-79
2021/09/04 04:19:00;;;;;;;;;27.75;25.50;;;;;-147.91;100.00;58652.34;5053156;28;46427;-79
2021/09/04 04:21:26;;;;;;;;;27.25;26.75;;;;;-147.91;100.00;58652.34;5044688;28;45991;-79
2021/09/04 04:23:51;;;;;;;;;34.00;28.00;;;;;-147.91;100.00;58652.34;5047357;28;45500;-80
2021/09/04 04:26:16;;;;;;;;;32.50;26.25;;;;;-147.91;100.00;58652.34;5052661;28;46437;-81
2021/09/04 04:28:42;;;;;;;;;26.00;26.00;;;;;-147.91;100.00;58652.34;5051654;28;45620;-79
2021/09/04 04:31:07;;;;;;;;;23.75;23.50;;;;;-147.91;100.00;58652.34;5050271;28;45568;-80
2021/09/04 04:33:33;;;;;;;;;29.00;25.00;;;;;-147.91;100.00;58652.34;5050665;28;45573;-79
2021/09/04 04:35:58;;;;;;;;;33.00;28.75;;;;;-147.91;100.00;58652.34;5055646;28;46549;-80
2021/09/04 04:38:23;;;;;;;;;31.50;25.00;;;;;-147.91;100.00;58652.34;5038725;28;45961;-80
2021/09/04 04:40:49;;;;;;;;;30.25;26.75;;;;;-147.91;100.00;58652.34;5051401;27;45529;-80
2021/09/04 04:43:14;;;;;;;;;36.75;27.25;;;;;-147.91;100.00;58652.34;5060133;28;45732;-80
2021/09/04 04:45:39;;;;;;;;;31.00;26.00;;;;;-147.91;100.00;58652.34;5045876;27;45427;-80
2021/09/04 04:48:05;;;;;;;;;31.25;27.25;;;;;-147.91;100.00;58652.34;5048779;28;45899;-80
2021/09/04 04:50:31;;;;;;;;;31.00;23.50;;;;;-147.91;100.00;58652.34;5052808;27;45637;-79
2021/09/04 04:52:56;;;;;;;;;31.25;26.75;;;;;-147.91;100.00;58652.34;5053235;28;45569;-80
2021/09/04 04:55:21;;;;;;;;;29.00;26.25;;;;;-147.91;100.00;58652.34;5055147;28;46159;-80
2021/09/04 04:57:47;;;;;;;;;31.75;28.25;;;;;-147.91;100.00;58652.34;5049444;28;45579;-80
2021/09/04 05:00:13;;;;;;;;;29.50;23.50;;;;;-147.91;100.00;58652.34;5057406;27;47846;-79
2021/09/04 05:02:39;;;;;;;;;33.75;26.25;;;;;-147.91;100.00;58652.34;5053372;28;45568;-80
2021/09/04 05:05:05;;;;;;;;;35.75;30.25;;;;;-147.91;100.00;58652.34;5053206;28;45551;-79
2021/09/04 05:07:31;;;;;;;;;33.00;30.00;;;;;-147.91;100.00;58652.34;5049806;28;45674;-79
2021/09/04 05:09:56;;;;;;;;;32.50;28.75;;;;;-147.91;100.00;58652.34;5060370;28;45583;-79
2021/09/04 05:12:22;;;;;;;;;32.00;27.75;;;;;-147.91;100.00;58652.34;5051293;28;52017;-80
2021/09/04 05:14:47;;;;;;;;;25.50;23.50;;;;;-147.91;100.00;58652.34;5050815;28;45620;-80
2021/09/04 05:17:12;;;;;;;;;32.50;27.50;;;;;-147.91;100.00;58652.34;5053213;28;47209;-79
2021/09/04 05:19:38;;;;;;;;;32.75;28.25;;;;;-147.91;100.00;58652.34;5058777;27;45817;-80
2021/09/04 05:22:03;;;;;;;;;27.25;25.00;;;;;-147.91;100.00;58652.34;5054045;28;46918;-79
2021/09/04 05:24:28;;;;;;;;;36.25;30.00;;;;;-147.91;100.00;58652.34;5048875;28;45777;-79
2021/09/04 05:26:54;;;;;;;;;30.50;25.75;;;;;-147.91;100.00;58652.34;5053504;28;45567;-80
2021/09/04 05:29:19;;;;;;;;;33.50;26.25;;;;;-147.91;100.00;58652.34;5031560;28;45702;-80
2021/09/04 05:31:44;;;;;;;;;28.25;26.50;;;;;-147.91;100.00;58652.34;5053003;28;45568;-79
2021/09/04 05:34:10;;;;;;;;;25.75;24.75;;;;;-147.91;100.00;58652.34;5048863;27;46331;-79
2021/09/04 05:36:35;;;;;;;;;26.75;25.00;;;;;-147.91;100.00;58652.34;5048574;27;45609;-80
2021/09/04 05:39:01;;;;;;;;;30.00;27.25;;;;;-147.91;100.00;58652.34;5047109;28;45589;-81
2021/09/04 05:41:26;;;;;;;;;30.50;26.25;;;;;-147.91;100.00;58652.34;5053060;28;45581;-79
2021/09/04 05:43:52;;;;;;;;;27.50;25.25;;;;;-147.91;100.00;58652.34;5044066;28;46216;-80
2021/09/04 05:46:17;;;;;;;;;29.00;27.50;;;;;-147.91;100.00;58652.34;5058556;27;45604;-79
2021/09/04 05:48:43;;;;;;;;;25.75;24.00;;;;;-147.91;100.00;58652.34;5031709;28;45623;-79
2021/09/04 05:51:08;;;;;;;;;27.75;24.25;;;;;-147.91;100.00;58652.34;5053456;27;46222;-80
2021/09/04 05:53:33;;;;;;;;;32.50;23.75;;;;;-147.91;100.00;58652.34;5054241;28;46679;-79
2021/09/04 05:55:59;;;;;;;;;27.25;27.00;;;;;-147.91;100.00;58652.34;5050270;27;46091;-80
2021/09/04 05:58:25;;;;;;;;;27.50;24.75;;;;;-147.91;100.00;58652.34;5048885;27;45653;-80
2021/09/04 06:00:51;;;;;;;;;24.75;24.00;;;;;-147.91;100.00;58652.34;5050921;28;45589;-80
2021/09/04 06:03:17;;;;;;;;;26.25;22.50;;;;;-147.91;100.00;58652.34;5052448;28;47505;-80
2021/09/04 06:05:42;;;;;;;;;23.00;22.50;;;;;-147.91;100.00;58652.34;5052860;27;45680;-80
2021/09/04 06:08:07;;;;;;;;;24.00;22.00;;;;;-147.91;100.00;58652.34;5035472;28;45624;-80
2021/09/04 06:10:33;;;;;;;;;22.00;20.50;;;;;-147.91;100.00;58652.34;5052931;27;45441;-80
2021/09/04 06:12:58;;;;;;;;;23.50;20.75;;;;;-147.91;100.00;58652.34;5048903;28;49257;-80
2021/09/04 06:15:24;;;;;;;;;24.50;21.50;;;;;-147.91;100.00;58652.34;5048964;27;47012;-80
2021/09/04 06:17:49;;;;;;;;;24.25;23.00;;;;;-147.91;100.00;58652.34;5053873;28;46364;-81
2021/09/04 06:20:15;;;;;;;;;25.00;21.00;;;;;-147.91;100.00;58652.34;5052103;27;45887;-80
2021/09/04 06:22:40;;;;;;;;;25.00;22.75;;;;;-147.91;100.00;58652.34;5054519;28;46418;-80
2021/09/04 06:25:06;;;;;;;;;25.50;22.25;;;;;-147.91;100.00;58652.34;5057160;28;48622;-80
2021/09/04 06:27:31;;;;;;;;;24.00;22.25;;;;;-147.91;100.00;58652.34;5051383;28;45800;-81
2021/09/04 06:29:57;;;;;;;;;23.25;23.25;;;;;-147.91;100.00;58652.34;5035253;28;45512;-80
2021/09/04 06:32:22;;;;;;;;;21.50;19.00;;;;;-147.91;100.00;58652.34;5049517;28;45559;-80
2021/09/04 06:34:47;;;;;;;;;21.50;21.00;;;;;-147.91;100.00;58652.34;5050909;27;45991;-81
2021/09/04 06:37:13;;;;;;;;;24.00;20.50;;;;;-147.91;100.00;58652.34;5056199;28;45606;-81
2021/09/04 06:39:39;;;;;;;;;24.25;23.50;;;;;-147.91;100.00;58652.34;5034002;28;45712;-81
2021/09/04 06:42:04;;;;;;;;;24.00;23.25;;;;;-147.91;100.00;58652.34;5053186;28;46013;-81
2021/09/04 06:44:30;;;;;;;;;22.25;22.25;;;;;-147.91;100.00;58652.34;5054068;28;45549;-81
2021/09/04 06:46:55;;;;;;;;;25.25;22.75;;;;;-147.91;100.00;58652.34;5048216;28;45824;-81
2021/09/04 06:49:20;;;;;;;;;28.50;25.25;;;;;-147.91;100.00;58652.34;5032601;28;45527;-81
2021/09/04 06:51:46;;;;;;;;;26.25;26.25;;;;;-147.91;100.00;58652.34;5054662;27;46556;-81
2021/09/04 06:54:11;;;;;;;;;26.25;25.75;;;;;-147.91;100.00;58652.34;5047132;27;45552;-80
2021/09/04 06:56:37;;;;;;;;;26.50;25.50;;;;;-147.91;100.00;58652.34;5052985;27;45511;-81
2021/09/04 06:59:02;;;;;;;;;26.75;23.25;;;;;-147.91;100.00;58652.34;5048592;28;46707;-81
2021/09/04 07:01:28;;;;;;;;;28.25;25.25;;;;;-147.91;100.00;58652.34;5054068;28;46311;-82
2021/09/04 07:03:53;;;;;;;;;25.00;24.25;;;;;-147.91;100.00;58652.34;5051057;28;45486;-81
2021/09/04 07:06:18;;;;;;;;;25.75;21.75;;;;;-147.91;100.00;58652.34;5050908;28;46179;-81
2021/09/04 07:08:44;;;;;;;;;24.50;22.00;;;;;-147.91;100.00;58652.34;5050205;28;45565;-80
2021/09/04 07:11:09;;;;;;;;;29.50;25.25;;;;;-147.91;100.00;58652.34;5056869;27;46223;-81
2021/09/04 07:13:35;;;;;;;;;25.75;22.75;;;;;-147.91;100.00;58652.34;5054365;27;45763;-82
2021/09/04 07:16:00;;;;;;;;;20.00;19.75;;;;;-147.91;100.00;58652.34;5060442;27;45846;-81
2021/09/04 07:18:26;;;;;;;;;24.50;20.75;;;;;-147.91;100.00;58652.34;5035725;28;46057;-81
2021/09/04 07:20:52;;;;;;;;;21.50;19.50;;;;;-147.91;100.00;58652.34;5053358;28;46232;-81
2021/09/04 07:23:20;;;;;;;;;22.75;22.50;;;;;-147.91;100.00;58652.34;5042779;28;46178;-81
2021/09/04 07:25:45;;;;;;;;;25.00;22.75;;;;;-147.91;100.00;58652.34;5056314;27;45655;-81
2021/09/04 07:28:11;;;;;;;;;21.00;20.75;;;;;-147.91;100.00;58652.34;5058708;28;45700;-81
2021/09/04 07:30:36;;;;;;;;;23.25;21.50;;;;;-147.91;100.00;58652.34;5047202;28;45717;-81
2021/09/04 07:33:03;;;;;;;;;25.00;24.00;;;;;-147.91;100.00;58652.34;5045526;28;45631;-81
2021/09/04 07:35:29;;;;;;;;;24.25;24.25;;;;;-147.91;100.00;58652.34;5053397;27;53981;-81
2021/09/04 07:37:54;;;;;;;;;25.25;21.50;;;;;-147.91;100.00;58652.34;5052370;28;51500;-81
2021/09/04 07:40:20;;;;;;;;;25.25;22.50;;;;;-147.91;100.00;58652.34;5053686;28;46516;-81
2021/09/04 07:42:45;;;;;;;;;28.25;24.00;;;;;-147.91;100.00;58652.34;5039110;28;45883;-81
2021/09/04 07:45:11;;;;;;;;;24.00;22.50;;;;;-147.91;100.00;58652.34;5054298;27;45994;-81
2021/09/04 07:47:36;;;;;;;;;27.00;24.75;;;;;-147.91;100.00;58652.34;5054385;27;45604;-82
2021/09/04 07:50:02;;;;;;;;;27.25;24.00;;;;;-147.91;100.00;58652.34;5039709;28;47088;-82
2021/09/04 07:52:28;;;;;;;;;27.00;23.00;;;;;-147.91;100.00;58652.34;5052501;27;45555;-81
2021/09/04 07:54:53;;;;;;;;;23.25;21.50;;;;;-147.91;100.00;58652.34;5055415;27;45526;-80
2021/09/04 07:57:18;;;;;;;;;21.75;20.25;;;;;-147.91;100.00;58652.34;5053030;27;45673;-82
2021/09/04 07:59:44;;;;;;;;;23.75;21.00;;;;;-147.91;100.00;58652.34;5053986;27;46493;-82
2021/09/04 08:02:09;;;;;;;;;19.75;18.75;;;;;-147.91;100.00;58652.34;5053031;27;45482;-81
2021/09/04 08:04:35;;;;;;;;;20.50;17.50;;;;;-147.91;100.00;58652.34;5050654;28;45502;-82
2021/09/04 08:07:00;;;;;;;;;21.25;19.50;;;;;-147.91;100.00;58652.34;5051028;28;45545;-81
2021/09/04 08:09:26;;;;;;;;;23.50;20.00;;;;;-147.91;100.00;58652.34;5046236;27;46268;-81
2021/09/04 08:11:51;;;;;;;;;21.00;20.00;;;;;-147.91;100.00;58652.34;5054096;28;45485;-81
2021/09/04 08:14:16;;;;;;;;;22.50;21.25;;;;;-147.91;100.00;58652.34;5050466;28;45531;-80
2021/09/04 08:16:42;;;;;;;;;21.00;18.50;;;;;-147.91;100.00;58652.34;5044870;28;47295;-81
2021/09/04 08:19:07;;;;;;;;;21.00;20.50;;;;;-147.91;100.00;58652.34;5051381;27;47280;-81
2021/09/04 08:21:32;;;;;;;;;20.50;18.00;;;;;-147.91;100.00;58652.34;5048471;27;45519;-81
2021/09/04 08:23:58;;;;;;;;;21.00;16.75;;;;;-147.91;100.00;58652.34;5051728;27;46069;-81
2021/09/04 08:26:23;;;;;;;;;21.25;19.75;;;;;-147.91;100.00;58652.34;5041426;27;45605;-80
2021/09/04 08:28:49;;;;;;;;;22.75;20.50;;;;;-147.91;100.00;58652.34;5030430;27;47038;-80
2021/09/04 08:31:14;;;;;;;;;21.25;19.00;;;;;-147.91;100.00;58652.34;5036235;28;45557;-80
2021/09/04 08:33:40;;;;;;;;;22.00;18.50;;;;;-147.91;100.00;58652.34;5048632;27;50960;-80
2021/09/04 08:36:05;;;;;;;;;25.25;21.25;;;;;-147.91;100.00;58652.34;5048152;28;45497;-81
2021/09/04 08:38:30;;;;;;;;;18.75;16.25;;;;;-147.91;100.00;58652.34;5059383;28;46200;-80
2021/09/04 08:40:56;;;;;;;;;18.50;18.50;;;;;-147.91;100.00;58652.34;5050353;27;45546;-80
2021/09/04 08:43:22;;;;;;;;;17.50;17.25;;;;;-147.91;100.00;58652.34;5050206;27;45556;-80
2021/09/04 08:45:47;;;;;;;;;21.75;19.25;;;;;-147.91;100.00;58652.34;5054617;28;45730;-80
2021/09/04 08:48:13;;;;;;;;;18.00;16.00;;;;;-147.91;100.00;58652.34;5047164;27;45785;-80
2021/09/04 08:50:39;;;;;;;;;17.00;15.50;;;;;-147.91;100.00;58652.34;5055230;28;45675;-80
2021/09/04 08:53:05;;;;;;;;;14.00;13.50;;;;;-147.91;100.00;58652.34;5053674;28;45741;-80
2021/09/04 08:55:31;;;;;;;;;17.00;13.50;;;;;-147.91;100.00;58652.34;5052422;28;45574;-79
2021/09/04 08:57:56;;;;;;;;;14.25;14.25;;;;;-147.91;100.00;58652.34;5046390;27;45537;-80
2021/09/04 09:00:33;;;;;;;;;16.25;12.50;;;;;-147.91;100.00;58652.34;5049955;27;45745;-80
2021/09/04 09:02:59;;;;;;;;;14.25;13.25;;;;;-147.91;100.00;58652.34;5058459;27;45574;-79
2021/09/04 09:05:25;;;;;;;;;14.75;12.75;;;;;-147.91;100.00;58652.34;5054637;27;45666;-79
2021/09/04 09:07:51;;;;;;;;;15.25;12.75;;;;;-147.91;100.00;58652.34;5052443;28;46401;-80
2021/09/04 09:10:22;;;;;;;;;19.75;15.25;;;;;-147.91;100.00;58652.34;5056554;27;45531;-80
2021/09/04 09:12:48;;;;;;;;;16.25;14.00;;;;;-147.91;100.00;58652.34;5052888;27;46078;-80
2021/09/04 09:15:25;;;;;;;;;13.50;11.25;;;;;-147.91;100.00;58652.34;5051482;27;45634;-80
2021/09/04 09:18:03;;;;;;;;;14.75;12.25;;;;;-147.91;100.00;58652.34;5056071;27;45576;-81
2021/09/04 09:20:29;;;;;;;;;13.25;11.25;;;;;-147.91;100.00;58652.34;5052531;27;45709;-80
2021/09/04 09:22:54;;;;;;;;;9.75;9.50;;;;;-147.91;100.00;58652.34;5051998;27;45566;-80
2021/09/04 09:25:20;;;;;;;;;15.75;12.50;;;;;-147.91;100.00;58652.34;5056691;27;45530;-80
2021/09/04 09:27:59;;;;;;;;;12.00;12.00;;;;;-147.91;100.00;58652.34;5050115;27;45663;-80
2021/09/04 09:30:36;;;;;;;;;12.00;12.00;;;;;-147.91;100.00;58652.34;5045648;28;46290;-80
2021/09/04 09:33:03;;;;;;;;;13.00;11.25;;;;;-147.91;100.00;58652.34;5049386;27;45441;-80
2021/09/04 09:35:33;;;;;;;;;12.25;12.00;;;;;-147.91;100.00;58652.34;5049904;27;45555;-80
2021/09/04 09:38:01;;;;;;;;;11.00;10.75;;;;;-147.91;100.00;58652.34;5051112;28;45617;-79
2021/09/04 09:40:26;;;;;;;;;12.50;12.50;;;;;-147.91;100.00;58652.34;5049971;28;45698;-79
2021/09/04 09:42:52;;;;;;;;;11.00;10.50;;;;;-147.91;100.00;58652.34;5056999;28;45591;-79
2021/09/04 09:45:17;;;;;;;;;12.00;10.25;;;;;-147.91;100.00;58652.34;5057065;28;45578;-80
2021/09/04 09:47:52;;;;;;;;;10.25;10.25;;;;;-147.91;100.00;58652.34;5049045;28;46686;-80
2021/09/04 09:50:18;;;;;;;;;16.50;13.25;;;;;-147.91;100.00;58652.34;5051736;27;45561;-80
2021/09/04 09:52:45;;;;;;;;;15.25;13.25;;;;;-147.91;100.00;58652.34;5049303;28;45457;-80
2021/09/04 09:55:12;;;;;;;;;14.00;12.75;;;;;-147.91;100.00;58652.34;5056988;28;45786;-80
2021/09/04 09:57:40;;;;;;;;;15.75;13.00;;;;;-147.91;100.00;58652.34;5036014;28;46584;-80
2021/09/04 10:00:07;;;;;;;;;13.75;11.75;;;;;-147.91;100.00;58652.34;5043433;28;46083;-80
2021/09/04 10:02:34;;;;;;;;;10.50;10.50;;;;;-147.91;100.00;58652.34;5052660;28;45727;-80
2021/09/04 10:05:00;;;;;;;;;10.50;10.25;;;;;-147.91;100.00;58652.34;5049545;27;45646;-80
2021/09/04 10:07:26;;;;;;;;;14.00;11.00;;;;;-147.91;100.00;58652.34;5037776;28;48169;-79
2021/09/04 10:09:52;;;;;;;;;11.00;11.00;;;;;-147.91;100.00;58652.34;5049476;28;45598;-80
2021/09/04 10:12:18;;;;;;;;;11.75;9.75;;;;;-147.91;100.00;58652.34;5050008;28;45896;-79
2021/09/04 10:14:46;;;;;;;;;12.50;11.50;;;;;-147.91;100.00;58652.34;5058101;28;45604;-80
2021/09/04 10:17:12;;;;;;;;;7.75;7.75;;;;;-147.91;100.00;58652.34;5051512;28;45596;-81
2021/09/04 10:19:39;;;;;;;;;16.00;11.00;;;;;-147.91;100.00;58652.34;5051549;27;45604;-82
2021/09/04 10:22:07;;;;;;;;;13.75;11.25;;;;;-147.91;100.00;58652.34;5053601;28;45636;-81
2021/09/04 10:24:44;;;;;;;;;11.25;8.25;;;;;-147.91;100.00;58652.34;5046988;27;45539;-81
2021/09/04 10:27:12;;;;;;;;;11.00;9.50;;;;;-147.91;100.00;58652.34;5050994;28;46665;-81
2021/09/04 10:29:45;;;;;;;;;9.00;8.00;;;;;-147.91;100.00;58652.34;5051812;28;45564;-81
2021/09/04 10:32:16;;;;;;;;;11.00;11.00;;;;;-147.91;100.00;58652.34;5046365;28;45749;-81
2021/09/04 10:34:44;;;;;;;;;12.75;10.00;;;;;-147.91;100.00;58652.34;5046361;28;45402;-81
2021/09/04 10:37:13;;;;;;;;;11.50;9.75;;;;;-147.91;100.00;58652.34;5051647;28;45611;-81
2021/09/04 10:40:09;;;;;;;;;10.00;10.00;;;;;-147.91;100.00;58652.34;5050547;28;45640;-81
2021/09/04 10:42:37;;;;;;;;;13.00;13.00;;;;;-147.91;100.00;58652.34;5026647;28;45522;-81
2021/09/04 10:45:06;;;;;;;;;12.25;11.00;;;;;-147.91;100.00;58652.34;5053830;27;45858;-81
2021/09/04 10:47:48;;;;;;;;;10.75;10.00;;;;;-147.91;100.00;58652.34;5041276;28;45771;-81
2021/09/04 10:50:15;;;;;;;;;13.25;9.00;;;;;-147.91;100.00;58652.34;5046661;27;45738;-80